Time;durP1;ratioP1;P1;durP2;ratioP2;P2;SDS_P1;SDS_P2;PMS_P1;PMS_P2;Temp;Humidity;BMP_temperature;BMP_pressure;BME280_temperature;BME280_humidity;BME280_pressure;Samples;Min_cycle;Max_cycle;Signal;HPM_P1;HPM_P2
2020/09/10 00:00:25;;;;;;;8.25;7.55;;;;;;;14.46;86.56348;95616.46;;;;
2020/09/10 00:01:26;;;;;;;8.400001;7.6;;;;;;;14.54;87.19141;95624.16;;;;
2020/09/10 00:02:26;;;;;;;8.400001;7.6;;;;;;;14.54;87.19141;95624.16;;;;
2020/09/10 00:03:27;;;;;;;8.400001;7.6;;;;;;;14.54;87.19141;95624.16;;;;
2020/09/10 00:04:27;;;;;;;8.400001;7.6;;;;;;;14.54;87.19141;95624.16;;;;
2020/09/10 00:05:28;;;;;;;8.400001;7.6;;;;;;;14.54;87.19141;95624.16;;;;
2020/09/10 00:06:28;;;;;;;8.400001;7.6;;;;;;;14.54;87.19141;95624.16;;;;
2020/09/10 00:07:29;;;;;;;8.400001;7.6;;;;;;;14.54;87.19141;95624.16;;;;
2020/09/10 00:08:29;;;;;;;8.400001;7.6;;;;;;;14.54;87.19141;95624.16;;;;
2020/09/10 00:09:30;;;;;;;8.400001;7.6;;;;;;;14.54;87.19141;95624.16;;;;
2020/09/10 00:10:30;;;;;;;8.400001;7.6;;;;;;;14.54;87.19141;95624.16;;;;
2020/09/10 00:11:30;;;;;;;8.400001;7.6;;;;;;;14.54;87.19141;95624.16;;;;
2020/09/10 00:12:31;;;;;;;7.699999;7;;;;;;;14.63;87.68164;95624.94;;;;
2020/09/10 00:13:31;;;;;;;7.699999;7;;;;;;;14.63;87.68164;95624.94;;;;
2020/09/10 00:14:32;;;;;;;7.699999;7;;;;;;;14.63;87.68164;95624.94;;;;
2020/09/10 00:15:32;;;;;;;7.699999;7;;;;;;;14.63;87.68164;95624.94;;;;
2020/09/10 00:16:33;;;;;;;7.699999;7;;;;;;;14.63;87.68164;95624.94;;;;
2020/09/10 00:17:33;;;;;;;7.699999;7;;;;;;;14.63;87.68164;95624.94;;;;
2020/09/10 00:18:34;;;;;;;7.699999;7;;;;;;;14.63;87.68164;95624.94;;;;
2020/09/10 00:19:34;;;;;;;7.699999;7;;;;;;;14.63;87.68164;95624.94;;;;
2020/09/10 00:20:35;;;;;;;7.699999;7;;;;;;;14.63;87.68164;95624.94;;;;
2020/09/10 00:21:35;;;;;;;7.699999;7;;;;;;;14.63;87.68164;95624.94;;;;
2020/09/10 00:22:36;;;;;;;8.200001;7.4;;;;;;;14.84;87.76758;95609.16;;;;
2020/09/10 00:23:36;;;;;;;8.200001;7.4;;;;;;;14.84;87.76758;95609.16;;;;
2020/09/10 00:24:37;;;;;;;8.200001;7.4;;;;;;;14.84;87.76758;95609.16;;;;
2020/09/10 00:25:37;;;;;;;8.200001;7.4;;;;;;;14.84;87.76758;95609.16;;;;
2020/09/10 00:26:38;;;;;;;8.200001;7.4;;;;;;;14.84;87.76758;95609.16;;;;
2020/09/10 00:27:38;;;;;;;8.200001;7.4;;;;;;;14.84;87.76758;95609.16;;;;
2020/09/10 00:28:39;;;;;;;8.200001;7.4;;;;;;;14.84;87.76758;95609.16;;;;
2020/09/10 00:29:40;;;;;;;8.200001;7.4;;;;;;;14.84;87.76758;95609.16;;;;
2020/09/10 00:30:40;;;;;;;8.200001;7.4;;;;;;;14.84;87.76758;95609.16;;;;
2020/09/10 00:31:41;;;;;;;8.200001;7.4;;;;;;;14.84;87.76758;95609.16;;;;
2020/09/10 00:32:41;;;;;;;8.200001;7.4;;;;;;;14.84;87.76758;95609.16;;;;
2020/09/10 00:33:42;;;;;;;8.200001;7.4;;;;;;;14.87;87.91309;95600.51;;;;
2020/09/10 00:34:42;;;;;;;8.200001;7.4;;;;;;;14.87;87.91309;95600.51;;;;
2020/09/10 00:35:43;;;;;;;8.200001;7.4;;;;;;;14.87;87.91309;95600.51;;;;
2020/09/10 00:36:43;;;;;;;8.200001;7.4;;;;;;;14.87;87.91309;95600.51;;;;
2020/09/10 00:37:44;;;;;;;8.200001;7.4;;;;;;;14.87;87.91309;95600.51;;;;
2020/09/10 00:38:44;;;;;;;8.200001;7.4;;;;;;;14.87;87.91309;95600.51;;;;
2020/09/10 00:39:45;;;;;;;8.200001;7.4;;;;;;;14.87;87.91309;95600.51;;;;
2020/09/10 00:40:45;;;;;;;8.200001;7.4;;;;;;;14.87;87.91309;95600.51;;;;
2020/09/10 00:41:46;;;;;;;8.200001;7.4;;;;;;;14.87;87.91309;95600.51;;;;
2020/09/10 00:42:46;;;;;;;8.200001;7.4;;;;;;;14.87;87.91309;95600.51;;;;
2020/09/10 00:43:54;;;;;;;8.199999;7.4;;;;;;;14.97;88.29785;95610.13;;;;
2020/09/10 00:44:55;;;;;;;8.199999;7.4;;;;;;;14.97;88.29785;95610.13;;;;
2020/09/10 00:45:55;;;;;;;8.199999;7.4;;;;;;;14.97;88.29785;95610.13;;;;
2020/09/10 00:46:57;;;;;;;8.199999;7.4;;;;;;;14.97;88.29785;95610.13;;;;
2020/09/10 00:47:58;;;;;;;8.199999;7.4;;;;;;;14.97;88.29785;95610.13;;;;
2020/09/10 00:48:58;;;;;;;8.199999;7.4;;;;;;;14.97;88.29785;95610.13;;;;
2020/09/10 00:49:59;;;;;;;8.199999;7.4;;;;;;;14.97;88.29785;95610.13;;;;
2020/09/10 00:51:00;;;;;;;8.199999;7.4;;;;;;;14.97;88.29785;95610.13;;;;
2020/09/10 00:52:01;;;;;;;8.199999;7.4;;;;;;;14.97;88.29785;95610.13;;;;
2020/09/10 00:53:01;;;;;;;8.199999;7.4;;;;;;;14.97;88.29785;95610.13;;;;
2020/09/10 00:54:02;;;;;;;8.199999;7.4;;;;;;;14.97;88.29785;95610.13;;;;
2020/09/10 00:55:02;;;;;;;8.450001;7.65;;;;;;;14.92;88.42871;95611.97;;;;
2020/09/10 00:56:03;;;;;;;8.450001;7.65;;;;;;;14.92;88.42871;95611.97;;;;
2020/09/10 00:57:08;;;;;;;8.450001;7.65;;;;;;;14.92;88.42871;95611.97;;;;
2020/09/10 00:58:17;;;;;;;8.450001;7.65;;;;;;;14.92;88.42871;95611.97;;;;
2020/09/10 00:59:26;;;;;;;8.450001;7.65;;;;;;;14.92;88.42871;95611.97;;;;
2020/09/10 01:00:35;;;;;;;8.450001;7.65;;;;;;;14.92;88.42871;95611.97;;;;
2020/09/10 01:01:36;;;;;;;8.450001;7.65;;;;;;;14.92;88.42871;95611.97;;;;
2020/09/10 01:02:38;;;;;;;8.450001;7.65;;;;;;;14.92;88.42871;95611.97;;;;
2020/09/10 01:03:41;;;;;;;8.450001;7.65;;;;;;;14.92;88.42871;95611.97;;;;
2020/09/10 01:04:42;;;;;;;8.450001;7.65;;;;;;;14.92;88.42871;95611.97;;;;
2020/09/10 01:23:41;;;;;;;8.150001;7.45;;;;;;;14.65;89.37598;95622.27;;;;
2020/09/10 01:24:42;;;;;;;8.150001;7.45;;;;;;;14.65;89.37598;95622.27;;;;
2020/09/10 01:25:42;;;;;;;8.150001;7.45;;;;;;;14.65;89.37598;95622.27;;;;
2020/09/10 01:26:43;;;;;;;8.35;7.55;;;;;;;14.51;90.02246;95622.49;;;;
2020/09/10 01:27:43;;;;;;;8.35;7.55;;;;;;;14.51;90.02246;95622.49;;;;
2020/09/10 01:28:44;;;;;;;8.35;7.55;;;;;;;14.51;90.02246;95622.49;;;;
2020/09/10 01:29:44;;;;;;;8.35;7.55;;;;;;;14.51;90.02246;95622.49;;;;
2020/09/10 01:30:45;;;;;;;8.35;7.55;;;;;;;14.51;90.02246;95622.49;;;;
2020/09/10 01:31:45;;;;;;;8.35;7.55;;;;;;;14.51;90.02246;95622.49;;;;
2020/09/10 01:32:46;;;;;;;8.35;7.55;;;;;;;14.51;90.02246;95622.49;;;;
2020/09/10 01:33:46;;;;;;;8.35;7.55;;;;;;;14.51;90.02246;95622.49;;;;
2020/09/10 01:34:47;;;;;;;8.35;7.55;;;;;;;14.51;90.02246;95622.49;;;;
2020/09/10 01:35:47;;;;;;;8.35;7.55;;;;;;;14.51;90.02246;95622.49;;;;
2020/09/10 01:36:47;;;;;;;8.35;7.55;;;;;;;14.51;90.02246;95622.49;;;;
2020/09/10 01:37:48;;;;;;;9.05;8.25;;;;;;;14.3;90.32617;95625.86;;;;
2020/09/10 01:38:48;;;;;;;9.05;8.25;;;;;;;14.3;90.32617;95625.86;;;;
2020/09/10 01:39:49;;;;;;;9.05;8.25;;;;;;;14.3;90.32617;95625.86;;;;
2020/09/10 01:40:49;;;;;;;9.05;8.25;;;;;;;14.3;90.32617;95625.86;;;;
2020/09/10 01:41:50;;;;;;;9.05;8.25;;;;;;;14.3;90.32617;95625.86;;;;
2020/09/10 01:42:50;;;;;;;9.05;8.25;;;;;;;14.3;90.32617;95625.86;;;;
2020/09/10 01:43:51;;;;;;;9.05;8.25;;;;;;;14.3;90.32617;95625.86;;;;
2020/09/10 01:44:51;;;;;;;9.05;8.25;;;;;;;14.3;90.32617;95625.86;;;;
2020/09/10 01:45:52;;;;;;;9.05;8.25;;;;;;;14.3;90.32617;95625.86;;;;
2020/09/10 01:46:52;;;;;;;9.05;8.25;;;;;;;14.3;90.32617;95625.86;;;;
2020/09/10 01:47:53;;;;;;;9.200002;8.25;;;;;;;14.12;90.81348;95628.02;;;;
2020/09/10 01:48:53;;;;;;;9.200002;8.25;;;;;;;14.12;90.81348;95628.02;;;;
2020/09/10 01:49:54;;;;;;;9.200002;8.25;;;;;;;14.12;90.81348;95628.02;;;;
2020/09/10 01:50:54;;;;;;;9.200002;8.25;;;;;;;14.12;90.81348;95628.02;;;;
2020/09/10 01:51:55;;;;;;;9.200002;8.25;;;;;;;14.12;90.81348;95628.02;;;;
2020/09/10 01:52:55;;;;;;;9.200002;8.25;;;;;;;14.12;90.81348;95628.02;;;;
2020/09/10 01:53:56;;;;;;;9.200002;8.25;;;;;;;14.12;90.81348;95628.02;;;;
2020/09/10 01:54:56;;;;;;;9.200002;8.25;;;;;;;14.12;90.81348;95628.02;;;;
2020/09/10 01:55:57;;;;;;;9.200002;8.25;;;;;;;14.12;90.81348;95628.02;;;;
2020/09/10 01:56:57;;;;;;;9.200002;8.25;;;;;;;14.12;90.81348;95628.02;;;;
2020/09/10 01:57:58;;;;;;;9.200002;8.25;;;;;;;14.12;90.81348;95628.02;;;;
2020/09/10 01:58:58;;;;;;;9.549999;8.649999;;;;;;;14.08;91.21387;95643.99;;;;
2020/09/10 01:59:59;;;;;;;9.549999;8.649999;;;;;;;14.08;91.21387;95643.99;;;;
2020/09/10 02:00:59;;;;;;;9.549999;8.649999;;;;;;;14.08;91.21387;95643.99;;;;
2020/09/10 02:02:00;;;;;;;9.549999;8.649999;;;;;;;14.08;91.21387;95643.99;;;;
2020/09/10 02:03:00;;;;;;;9.549999;8.649999;;;;;;;14.08;91.21387;95643.99;;;;
2020/09/10 02:04:01;;;;;;;9.549999;8.649999;;;;;;;14.08;91.21387;95643.99;;;;
2020/09/10 02:05:02;;;;;;;9.549999;8.649999;;;;;;;14.08;91.21387;95643.99;;;;
2020/09/10 02:06:02;;;;;;;9.549999;8.649999;;;;;;;14.08;91.21387;95643.99;;;;
2020/09/10 02:07:03;;;;;;;9.549999;8.649999;;;;;;;14.08;91.21387;95643.99;;;;
2020/09/10 02:08:03;;;;;;;9.549999;8.649999;;;;;;;14.08;91.21387;95643.99;;;;
2020/09/10 02:09:04;;;;;;;9.85;8.85;;;;;;;14.09;91.64453;95652;;;;
2020/09/10 02:10:04;;;;;;;9.85;8.85;;;;;;;14.09;91.64453;95652;;;;
2020/09/10 02:11:05;;;;;;;9.85;8.85;;;;;;;14.09;91.64453;95652;;;;
2020/09/10 02:12:05;;;;;;;9.85;8.85;;;;;;;14.09;91.64453;95652;;;;
2020/09/10 02:13:06;;;;;;;9.85;8.85;;;;;;;14.09;91.64453;95652;;;;
2020/09/10 02:14:06;;;;;;;9.85;8.85;;;;;;;14.09;91.64453;95652;;;;
2020/09/10 02:15:07;;;;;;;9.85;8.85;;;;;;;14.09;91.64453;95652;;;;
2020/09/10 02:16:07;;;;;;;9.85;8.85;;;;;;;14.09;91.64453;95652;;;;
2020/09/10 02:17:08;;;;;;;9.85;8.85;;;;;;;14.09;91.64453;95652;;;;
2020/09/10 02:18:08;;;;;;;9.85;8.85;;;;;;;14.09;91.64453;95652;;;;
2020/09/10 02:19:09;;;;;;;9.85;8.85;;;;;;;14.09;91.64453;95652;;;;
2020/09/10 02:20:09;;;;;;;9.399999;8.6;;;;;;;14.09;91.81836;95665.05;;;;
2020/09/10 02:21:10;;;;;;;9.399999;8.6;;;;;;;14.09;91.81836;95665.05;;;;
2020/09/10 02:22:10;;;;;;;9.399999;8.6;;;;;;;14.09;91.81836;95665.05;;;;
2020/09/10 02:23:11;;;;;;;9.399999;8.6;;;;;;;14.09;91.81836;95665.05;;;;
2020/09/10 02:24:11;;;;;;;9.399999;8.6;;;;;;;14.09;91.81836;95665.05;;;;
2020/09/10 02:25:12;;;;;;;9.399999;8.6;;;;;;;14.09;91.81836;95665.05;;;;
2020/09/10 02:26:12;;;;;;;9.399999;8.6;;;;;;;14.09;91.81836;95665.05;;;;
2020/09/10 02:27:12;;;;;;;9.399999;8.6;;;;;;;14.09;91.81836;95665.05;;;;
2020/09/10 02:28:13;;;;;;;9.399999;8.6;;;;;;;14.09;91.81836;95665.05;;;;
2020/09/10 02:29:14;;;;;;;9.399999;8.6;;;;;;;14.09;91.81836;95665.05;;;;
2020/09/10 02:30:14;;;;;;;9.399999;8.6;;;;;;;14.09;91.81836;95665.05;;;;
2020/09/10 02:31:15;;;;;;;9.200001;8.299999;;;;;;;13.84;92.23535;95666.53;;;;
2020/09/10 02:32:15;;;;;;;9.200001;8.299999;;;;;;;13.84;92.23535;95666.53;;;;
2020/09/10 02:33:15;;;;;;;9.200001;8.299999;;;;;;;13.84;92.23535;95666.53;;;;
2020/09/10 02:34:16;;;;;;;9.200001;8.299999;;;;;;;13.84;92.23535;95666.53;;;;
2020/09/10 02:35:16;;;;;;;9.200001;8.299999;;;;;;;13.84;92.23535;95666.53;;;;
2020/09/10 02:36:17;;;;;;;9.200001;8.299999;;;;;;;13.84;92.23535;95666.53;;;;
2020/09/10 02:37:17;;;;;;;9.200001;8.299999;;;;;;;13.84;92.23535;95666.53;;;;
2020/09/10 02:38:18;;;;;;;9.200001;8.299999;;;;;;;13.84;92.23535;95666.53;;;;
2020/09/10 02:39:18;;;;;;;9.200001;8.299999;;;;;;;13.84;92.23535;95666.53;;;;
2020/09/10 02:40:19;;;;;;;9.200001;8.299999;;;;;;;13.84;92.23535;95666.53;;;;
2020/09/10 02:41:19;;;;;;;8.749998;7.950001;;;;;;;13.55;93.06738;95667.55;;;;
2020/09/10 02:42:20;;;;;;;8.749998;7.950001;;;;;;;13.55;93.06738;95667.55;;;;
2020/09/10 02:43:20;;;;;;;8.749998;7.950001;;;;;;;13.55;93.06738;95667.55;;;;
2020/09/10 02:44:21;;;;;;;8.749998;7.950001;;;;;;;13.55;93.06738;95667.55;;;;
2020/09/10 02:45:21;;;;;;;8.749998;7.950001;;;;;;;13.55;93.06738;95667.55;;;;
2020/09/10 02:46:22;;;;;;;8.749998;7.950001;;;;;;;13.55;93.06738;95667.55;;;;
2020/09/10 02:47:22;;;;;;;8.749998;7.950001;;;;;;;13.55;93.06738;95667.55;;;;
2020/09/10 02:48:23;;;;;;;8.749998;7.950001;;;;;;;13.55;93.06738;95667.55;;;;
2020/09/10 02:49:23;;;;;;;8.749998;7.950001;;;;;;;13.55;93.06738;95667.55;;;;
2020/09/10 02:50:24;;;;;;;8.749998;7.950001;;;;;;;13.55;93.06738;95667.55;;;;
2020/09/10 02:51:24;;;;;;;8.749998;7.950001;;;;;;;13.55;93.06738;95667.55;;;;
2020/09/10 02:52:25;;;;;;;9.950001;9.049999;;;;;;;13.34;93.78223;95664.18;;;;
2020/09/10 02:53:25;;;;;;;9.950001;9.049999;;;;;;;13.34;93.78223;95664.18;;;;
2020/09/10 02:54:25;;;;;;;9.950001;9.049999;;;;;;;13.34;93.78223;95664.18;;;;
2020/09/10 02:55:26;;;;;;;9.950001;9.049999;;;;;;;13.34;93.78223;95664.18;;;;
2020/09/10 02:56:26;;;;;;;9.950001;9.049999;;;;;;;13.34;93.78223;95664.18;;;;
2020/09/10 02:57:27;;;;;;;9.950001;9.049999;;;;;;;13.34;93.78223;95664.18;;;;
2020/09/10 02:58:27;;;;;;;9.950001;9.049999;;;;;;;13.34;93.78223;95664.18;;;;
2020/09/10 02:59:28;;;;;;;9.950001;9.049999;;;;;;;13.34;93.78223;95664.18;;;;
2020/09/10 03:00:28;;;;;;;9.950001;9.049999;;;;;;;13.34;93.78223;95664.18;;;;
2020/09/10 03:01:29;;;;;;;9.950001;9.049999;;;;;;;13.34;93.78223;95664.18;;;;
2020/09/10 03:02:29;;;;;;;9.9;9.049999;;;;;;;13.24;94.19922;95651.36;;;;
2020/09/10 03:03:30;;;;;;;9.9;9.049999;;;;;;;13.24;94.19922;95651.36;;;;
2020/09/10 03:04:30;;;;;;;9.9;9.049999;;;;;;;13.24;94.19922;95651.36;;;;
2020/09/10 03:05:30;;;;;;;9.9;9.049999;;;;;;;13.24;94.19922;95651.36;;;;
2020/09/10 03:06:31;;;;;;;9.9;9.049999;;;;;;;13.24;94.19922;95651.36;;;;
2020/09/10 03:07:31;;;;;;;9.9;9.049999;;;;;;;13.24;94.19922;95651.36;;;;
2020/09/10 03:08:32;;;;;;;9.9;9.049999;;;;;;;13.24;94.19922;95651.36;;;;
2020/09/10 03:09:33;;;;;;;9.9;9.049999;;;;;;;13.24;94.19922;95651.36;;;;
2020/09/10 03:10:34;;;;;;;9.9;9.049999;;;;;;;13.24;94.19922;95651.36;;;;
2020/09/10 03:11:34;;;;;;;9.9;9.049999;;;;;;;13.24;94.19922;95651.36;;;;
2020/09/10 03:12:35;;;;;;;9.9;9.049999;;;;;;;13.24;94.19922;95651.36;;;;
2020/09/10 03:13:35;;;;;;;11.05;9.950001;;;;;;;13.11;94.58789;95662.11;;;;
2020/09/10 03:14:36;;;;;;;11.05;9.950001;;;;;;;13.11;94.58789;95662.11;;;;
2020/09/10 03:15:36;;;;;;;11.05;9.950001;;;;;;;13.11;94.58789;95662.11;;;;
2020/09/10 03:16:37;;;;;;;11.05;9.950001;;;;;;;13.11;94.58789;95662.11;;;;
2020/09/10 03:17:37;;;;;;;11.05;9.950001;;;;;;;13.11;94.58789;95662.11;;;;
2020/09/10 03:18:38;;;;;;;11.05;9.950001;;;;;;;13.11;94.58789;95662.11;;;;
2020/09/10 03:19:38;;;;;;;11.05;9.950001;;;;;;;13.11;94.58789;95662.11;;;;
2020/09/10 03:20:39;;;;;;;11.05;9.950001;;;;;;;13.11;94.58789;95662.11;;;;
2020/09/10 03:21:39;;;;;;;11.05;9.950001;;;;;;;13.11;94.58789;95662.11;;;;
2020/09/10 03:22:39;;;;;;;11.05;9.950001;;;;;;;13.11;94.58789;95662.11;;;;
2020/09/10 03:23:41;;;;;;;11.05;9.950001;;;;;;;13.11;94.58789;95662.11;;;;
2020/09/10 03:24:41;;;;;;;9.9;8.9;;;;;;;13.1;94.75684;95655.86;;;;
2020/09/10 03:25:41;;;;;;;9.9;8.9;;;;;;;13.1;94.75684;95655.86;;;;
2020/09/10 03:26:42;;;;;;;9.9;8.9;;;;;;;13.1;94.75684;95655.86;;;;
2020/09/10 03:27:42;;;;;;;9.9;8.9;;;;;;;13.1;94.75684;95655.86;;;;
2020/09/10 03:28:43;;;;;;;9.9;8.9;;;;;;;13.1;94.75684;95655.86;;;;
2020/09/10 03:29:43;;;;;;;9.9;8.9;;;;;;;13.1;94.75684;95655.86;;;;
2020/09/10 03:30:44;;;;;;;9.9;8.9;;;;;;;13.1;94.75684;95655.86;;;;
2020/09/10 03:31:44;;;;;;;9.9;8.9;;;;;;;13.1;94.75684;95655.86;;;;
2020/09/10 03:32:45;;;;;;;9.9;8.9;;;;;;;13.1;94.75684;95655.86;;;;
2020/09/10 03:33:45;;;;;;;9.9;8.9;;;;;;;13.1;94.75684;95655.86;;;;
2020/09/10 03:34:46;;;;;;;10.35;9.349998;;;;;;;13.05;95.04688;95649.52;;;;
2020/09/10 03:35:46;;;;;;;10.35;9.349998;;;;;;;13.05;95.04688;95649.52;;;;
2020/09/10 03:36:47;;;;;;;10.35;9.349998;;;;;;;13.05;95.04688;95649.52;;;;
2020/09/10 03:37:47;;;;;;;10.35;9.349998;;;;;;;13.05;95.04688;95649.52;;;;
2020/09/10 03:38:48;;;;;;;10.35;9.349998;;;;;;;13.05;95.04688;95649.52;;;;
2020/09/10 03:39:48;;;;;;;10.35;9.349998;;;;;;;13.05;95.04688;95649.52;;;;
2020/09/10 03:40:48;;;;;;;10.35;9.349998;;;;;;;13.05;95.04688;95649.52;;;;
2020/09/10 03:41:49;;;;;;;10.35;9.349998;;;;;;;13.05;95.04688;95649.52;;;;
2020/09/10 03:42:50;;;;;;;10.35;9.349998;;;;;;;13.05;95.04688;95649.52;;;;
2020/09/10 03:43:50;;;;;;;10.35;9.349998;;;;;;;13.05;95.04688;95649.52;;;;
2020/09/10 03:44:51;;;;;;;10.35;9.349998;;;;;;;13.05;95.04688;95649.52;;;;
2020/09/10 03:45:52;;;;;;;9.9;8.9;;;;;;;12.99;95.41699;95647.76;;;;
2020/09/10 03:46:52;;;;;;;9.9;8.9;;;;;;;12.99;95.41699;95647.76;;;;
2020/09/10 03:47:54;;;;;;;9.9;8.9;;;;;;;12.99;95.41699;95647.76;;;;
2020/09/10 03:48:55;;;;;;;9.9;8.9;;;;;;;12.99;95.41699;95647.76;;;;
2020/09/10 03:49:56;;;;;;;9.9;8.9;;;;;;;12.99;95.41699;95647.76;;;;
2020/09/10 03:50:57;;;;;;;9.9;8.9;;;;;;;12.99;95.41699;95647.76;;;;
2020/09/10 03:51:58;;;;;;;9.9;8.9;;;;;;;12.99;95.41699;95647.76;;;;
2020/09/10 03:52:58;;;;;;;9.9;8.9;;;;;;;12.99;95.41699;95647.76;;;;
2020/09/10 03:53:59;;;;;;;9.9;8.9;;;;;;;12.99;95.41699;95647.76;;;;
2020/09/10 03:54:59;;;;;;;9.9;8.9;;;;;;;12.99;95.41699;95647.76;;;;
2020/09/10 03:56:00;;;;;;;10;9.000002;;;;;;;12.82;95.78906;95641.33;;;;
2020/09/10 03:57:00;;;;;;;10;9.000002;;;;;;;12.82;95.78906;95641.33;;;;
2020/09/10 03:58:02;;;;;;;10;9.000002;;;;;;;12.82;95.78906;95641.33;;;;
2020/09/10 03:59:04;;;;;;;10;9.000002;;;;;;;12.82;95.78906;95641.33;;;;
2020/09/10 04:00:06;;;;;;;10;9.000002;;;;;;;12.82;95.78906;95641.33;;;;
2020/09/10 04:01:07;;;;;;;10;9.000002;;;;;;;12.82;95.78906;95641.33;;;;
2020/09/10 04:02:07;;;;;;;10;9.000002;;;;;;;12.82;95.78906;95641.33;;;;
2020/09/10 04:03:08;;;;;;;10;9.000002;;;;;;;12.82;95.78906;95641.33;;;;
2020/09/10 04:04:10;;;;;;;10;9.000002;;;;;;;12.82;95.78906;95641.33;;;;
2020/09/10 04:05:10;;;;;;;10;9.000002;;;;;;;12.82;95.78906;95641.33;;;;
2020/09/10 04:06:19;;;;;;;10;9.000002;;;;;;;12.82;95.78906;95641.33;;;;
2020/09/10 04:07:20;;;;;;;9.6;8.700001;;;;;;;12.72;96.1377;95637.19;;;;
2020/09/10 04:08:28;;;;;;;9.6;8.700001;;;;;;;12.72;96.1377;95637.19;;;;
2020/09/10 04:09:29;;;;;;;9.6;8.700001;;;;;;;12.72;96.1377;95637.19;;;;
2020/09/10 04:10:33;;;;;;;9.6;8.700001;;;;;;;12.72;96.1377;95637.19;;;;
2020/09/10 04:11:34;;;;;;;9.6;8.700001;;;;;;;12.72;96.1377;95637.19;;;;
2020/09/10 04:12:36;;;;;;;9.6;8.700001;;;;;;;12.72;96.1377;95637.19;;;;
2020/09/10 04:13:36;;;;;;;9.6;8.700001;;;;;;;12.72;96.1377;95637.19;;;;
2020/09/10 04:14:48;;;;;;;9.6;8.700001;;;;;;;12.72;96.1377;95637.19;;;;
2020/09/10 04:15:48;;;;;;;9.6;8.700001;;;;;;;12.72;96.1377;95637.19;;;;
2020/09/10 04:16:49;;;;;;;9.6;8.700001;;;;;;;12.72;96.1377;95637.19;;;;
2020/09/10 04:17:50;;;;;;;11.25;10.15;;;;;;;12.57;96.48145;95637.7;;;;
2020/09/10 04:19:00;;;;;;;11.25;10.15;;;;;;;12.57;96.48145;95637.7;;;;
2020/09/10 04:20:20;;;;;;;11.25;10.15;;;;;;;12.57;96.48145;95637.7;;;;
2020/09/10 04:21:20;;;;;;;11.25;10.15;;;;;;;12.57;96.48145;95637.7;;;;
2020/09/10 04:22:21;;;;;;;11.25;10.15;;;;;;;12.57;96.48145;95637.7;;;;
2020/09/10 04:23:29;;;;;;;11.25;10.15;;;;;;;12.57;96.48145;95637.7;;;;
2020/09/10 04:24:30;;;;;;;11.25;10.15;;;;;;;12.57;96.48145;95637.7;;;;
2020/09/10 04:25:31;;;;;;;11.25;10.15;;;;;;;12.57;96.48145;95637.7;;;;
2020/09/10 04:26:32;;;;;;;11.25;10.15;;;;;;;12.57;96.48145;95637.7;;;;
2020/09/10 04:27:37;;;;;;;11.25;10.15;;;;;;;12.57;96.48145;95637.7;;;;
2020/09/10 04:28:39;;;;;;;12.3;11.2;;;;;;;12.58;96.89941;95628.5;;;;
2020/09/10 04:29:41;;;;;;;12.3;11.2;;;;;;;12.58;96.89941;95628.5;;;;
2020/09/10 04:30:42;;;;;;;12.3;11.2;;;;;;;12.58;96.89941;95628.5;;;;
2020/09/10 04:31:42;;;;;;;12.3;11.2;;;;;;;12.58;96.89941;95628.5;;;;
2020/09/10 04:32:45;;;;;;;12.3;11.2;;;;;;;12.58;96.89941;95628.5;;;;
2020/09/10 04:33:47;;;;;;;12.3;11.2;;;;;;;12.58;96.89941;95628.5;;;;
2020/09/10 04:34:50;;;;;;;12.3;11.2;;;;;;;12.58;96.89941;95628.5;;;;
2020/09/10 04:35:50;;;;;;;12.3;11.2;;;;;;;12.58;96.89941;95628.5;;;;
2020/09/10 04:36:52;;;;;;;12.3;11.2;;;;;;;12.58;96.89941;95628.5;;;;
2020/09/10 04:38:03;;;;;;;12.3;11.2;;;;;;;12.58;96.89941;95628.5;;;;
2020/09/10 04:39:04;;;;;;;11.65;10.55;;;;;;;12.53;97.12402;95619.86;;;;
2020/09/10 04:40:04;;;;;;;11.65;10.55;;;;;;;12.53;97.12402;95619.86;;;;
2020/09/10 04:41:05;;;;;;;11.65;10.55;;;;;;;12.53;97.12402;95619.86;;;;
2020/09/10 04:42:07;;;;;;;11.65;10.55;;;;;;;12.53;97.12402;95619.86;;;;
2020/09/10 04:43:09;;;;;;;11.65;10.55;;;;;;;12.53;97.12402;95619.86;;;;
2020/09/10 04:44:09;;;;;;;11.65;10.55;;;;;;;12.53;97.12402;95619.86;;;;
2020/09/10 04:45:10;;;;;;;11.65;10.55;;;;;;;12.53;97.12402;95619.86;;;;
2020/09/10 04:46:13;;;;;;;11.65;10.55;;;;;;;12.53;97.12402;95619.86;;;;
2020/09/10 04:47:14;;;;;;;11.65;10.55;;;;;;;12.53;97.12402;95619.86;;;;
2020/09/10 04:48:15;;;;;;;11.65;10.55;;;;;;;12.53;97.12402;95619.86;;;;
2020/09/10 04:49:16;;;;;;;11.55;10.45;;;;;;;12.54;97.3584;95622.88;;;;
2020/09/10 04:50:16;;;;;;;11.55;10.45;;;;;;;12.54;97.3584;95622.88;;;;
2020/09/10 04:51:18;;;;;;;11.55;10.45;;;;;;;12.54;97.3584;95622.88;;;;
2020/09/10 04:52:21;;;;;;;11.55;10.45;;;;;;;12.54;97.3584;95622.88;;;;
2020/09/10 04:53:22;;;;;;;11.55;10.45;;;;;;;12.54;97.3584;95622.88;;;;
2020/09/10 04:54:23;;;;;;;11.55;10.45;;;;;;;12.54;97.3584;95622.88;;;;
2020/09/10 04:55:28;;;;;;;11.55;10.45;;;;;;;12.54;97.3584;95622.88;;;;
2020/09/10 04:56:32;;;;;;;11.55;10.45;;;;;;;12.54;97.3584;95622.88;;;;
2020/09/10 04:57:33;;;;;;;11.55;10.45;;;;;;;12.54;97.3584;95622.88;;;;
2020/09/10 04:58:35;;;;;;;11.55;10.45;;;;;;;12.54;97.3584;95622.88;;;;
2020/09/10 04:59:37;;;;;;;11.55;10.45;;;;;;;12.54;97.3584;95622.88;;;;
2020/09/10 05:00:39;;;;;;;12.2;11.1;;;;;;;12.49;97.57227;95632.64;;;;
2020/09/10 05:01:48;;;;;;;12.2;11.1;;;;;;;12.49;97.57227;95632.64;;;;
2020/09/10 05:02:49;;;;;;;12.2;11.1;;;;;;;12.49;97.57227;95632.64;;;;
2020/09/10 05:03:49;;;;;;;12.2;11.1;;;;;;;12.49;97.57227;95632.64;;;;
2020/09/10 05:04:50;;;;;;;12.2;11.1;;;;;;;12.49;97.57227;95632.64;;;;
2020/09/10 05:05:50;;;;;;;12.2;11.1;;;;;;;12.49;97.57227;95632.64;;;;
2020/09/10 05:06:51;;;;;;;12.2;11.1;;;;;;;12.49;97.57227;95632.64;;;;
2020/09/10 05:07:51;;;;;;;12.2;11.1;;;;;;;12.49;97.57227;95632.64;;;;
2020/09/10 05:08:52;;;;;;;12.2;11.1;;;;;;;12.49;97.57227;95632.64;;;;
2020/09/10 05:09:52;;;;;;;12.2;11.1;;;;;;;12.49;97.57227;95632.64;;;;
2020/09/10 05:10:58;;;;;;;11.45;10.35;;;;;;;12.61;97.84473;95630.33;;;;
2020/09/10 05:12:04;;;;;;;11.45;10.35;;;;;;;12.61;97.84473;95630.33;;;;
2020/09/10 05:13:30;;;;;;;11.45;10.35;;;;;;;12.61;97.84473;95630.33;;;;
2020/09/10 05:14:31;;;;;;;11.45;10.35;;;;;;;12.61;97.84473;95630.33;;;;
2020/09/10 05:15:31;;;;;;;11.45;10.35;;;;;;;12.61;97.84473;95630.33;;;;
2020/09/10 05:16:32;;;;;;;11.45;10.35;;;;;;;12.61;97.84473;95630.33;;;;
2020/09/10 05:17:32;;;;;;;11.45;10.35;;;;;;;12.61;97.84473;95630.33;;;;
2020/09/10 05:18:33;;;;;;;11.45;10.35;;;;;;;12.61;97.84473;95630.33;;;;
2020/09/10 05:19:47;;;;;;;11.45;10.35;;;;;;;12.61;97.84473;95630.33;;;;
2020/09/10 05:20:48;;;;;;;11.45;10.35;;;;;;;12.61;97.84473;95630.33;;;;
2020/09/10 05:21:48;;;;;;;13.15;11.85;;;;;;;12.79;98.03418;95631.09;;;;
2020/09/10 05:22:49;;;;;;;13.15;11.85;;;;;;;12.79;98.03418;95631.09;;;;
2020/09/10 05:23:49;;;;;;;13.15;11.85;;;;;;;12.79;98.03418;95631.09;;;;
2020/09/10 05:24:50;;;;;;;13.15;11.85;;;;;;;12.79;98.03418;95631.09;;;;
2020/09/10 05:25:50;;;;;;;13.15;11.85;;;;;;;12.79;98.03418;95631.09;;;;
2020/09/10 05:26:51;;;;;;;13.15;11.85;;;;;;;12.79;98.03418;95631.09;;;;
2020/09/10 05:27:51;;;;;;;13.15;11.85;;;;;;;12.79;98.03418;95631.09;;;;
2020/09/10 05:28:52;;;;;;;13.15;11.85;;;;;;;12.79;98.03418;95631.09;;;;
2020/09/10 05:29:54;;;;;;;13.15;11.85;;;;;;;12.79;98.03418;95631.09;;;;
2020/09/10 05:30:55;;;;;;;13.15;11.85;;;;;;;12.79;98.03418;95631.09;;;;
2020/09/10 05:31:56;;;;;;;12.45;11.15;;;;;;;13.07;98.09766;95619.34;;;;
2020/09/10 05:32:58;;;;;;;12.45;11.15;;;;;;;13.07;98.09766;95619.34;;;;
2020/09/10 05:33:58;;;;;;;12.45;11.15;;;;;;;13.07;98.09766;95619.34;;;;
2020/09/10 05:34:59;;;;;;;12.45;11.15;;;;;;;13.07;98.09766;95619.34;;;;
2020/09/10 05:36:00;;;;;;;12.45;11.15;;;;;;;13.07;98.09766;95619.34;;;;
2020/09/10 05:37:00;;;;;;;12.45;11.15;;;;;;;13.07;98.09766;95619.34;;;;
2020/09/10 05:38:01;;;;;;;12.45;11.15;;;;;;;13.07;98.09766;95619.34;;;;
2020/09/10 05:39:02;;;;;;;12.45;11.15;;;;;;;13.07;98.09766;95619.34;;;;
2020/09/10 05:40:04;;;;;;;12.45;11.15;;;;;;;13.07;98.09766;95619.34;;;;
2020/09/10 05:41:12;;;;;;;12.45;11.15;;;;;;;13.07;98.09766;95619.34;;;;
2020/09/10 05:42:13;;;;;;;12.45;11.15;;;;;;;13.07;98.09766;95619.34;;;;
2020/09/10 05:43:21;;;;;;;12.3;11.05;;;;;;;13.25;98.16895;95615.06;;;;
2020/09/10 05:44:22;;;;;;;12.3;11.05;;;;;;;13.25;98.16895;95615.06;;;;
2020/09/10 05:45:23;;;;;;;12.3;11.05;;;;;;;13.25;98.16895;95615.06;;;;
2020/09/10 05:46:23;;;;;;;12.3;11.05;;;;;;;13.25;98.16895;95615.06;;;;
2020/09/10 05:47:24;;;;;;;12.3;11.05;;;;;;;13.25;98.16895;95615.06;;;;
2020/09/10 05:48:25;;;;;;;12.3;11.05;;;;;;;13.25;98.16895;95615.06;;;;
2020/09/10 05:49:26;;;;;;;12.3;11.05;;;;;;;13.25;98.16895;95615.06;;;;
2020/09/10 05:50:34;;;;;;;12.3;11.05;;;;;;;13.25;98.16895;95615.06;;;;
2020/09/10 05:51:35;;;;;;;12.3;11.05;;;;;;;13.25;98.16895;95615.06;;;;
2020/09/10 05:52:42;;;;;;;12.3;11.05;;;;;;;13.25;98.16895;95615.06;;;;